sensor_id;sensor_type;location;lat;lon;timestamp;temperature;humidity
40257;DHT22;25977;45.462;9.210;2023-12-20T00:00:58;10.80;93.30
40257;DHT22;25977;45.462;9.210;2023-12-20T00:03:23;10.80;93.30
40257;DHT22;25977;45.462;9.210;2023-12-20T00:05:49;10.70;93.30
40257;DHT22;25977;45.462;9.210;2023-12-20T00:08:15;10.80;93.30
40257;DHT22;25977;45.462;9.210;2023-12-20T00:10:41;10.80;93.30
40257;DHT22;25977;45.462;9.210;2023-12-20T00:13:07;10.80;93.30
40257;DHT22;25977;45.462;9.210;2023-12-20T00:15:33;10.70;93.30
40257;DHT22;25977;45.462;9.210;2023-12-20T00:17:59;10.70;93.30
40257;DHT22;25977;45.462;9.210;2023-12-20T00:20:26;10.70;93.30
40257;DHT22;25977;45.462;9.210;2023-12-20T00:22:53;10.60;93.30
40257;DHT22;25977;45.462;9.210;2023-12-20T00:25:19;10.60;93.30
40257;DHT22;25977;45.462;9.210;2023-12-20T00:27:44;10.70;93.40
40257;DHT22;25977;45.462;9.210;2023-12-20T00:30:10;10.60;93.40
40257;DHT22;25977;45.462;9.210;2023-12-20T00:32:36;10.60;93.50
40257;DHT22;25977;45.462;9.210;2023-12-20T00:35:02;10.60;93.50
40257;DHT22;25977;45.462;9.210;2023-12-20T00:37:28;10.60;93.50
40257;DHT22;25977;45.462;9.210;2023-12-20T00:39:53;10.50;93.50
40257;DHT22;25977;45.462;9.210;2023-12-20T00:42:19;10.60;93.50
40257;DHT22;25977;45.462;9.210;2023-12-20T00:44:44;10.60;93.60
40257;DHT22;25977;45.462;9.210;2023-12-20T00:47:10;10.60;93.60
40257;DHT22;25977;45.462;9.210;2023-12-20T00:49:36;10.60;93.60
40257;DHT22;25977;45.462;9.210;2023-12-20T00:52:01;10.60;93.60
40257;DHT22;25977;45.462;9.210;2023-12-20T00:54:27;10.60;93.60
40257;DHT22;25977;45.462;9.210;2023-12-20T00:56:53;10.50;93.60
40257;DHT22;25977;45.462;9.210;2023-12-20T00:59:19;10.50;93.60
40257;DHT22;25977;45.462;9.210;2023-12-20T01:01:45;10.50;93.70
40257;DHT22;25977;45.462;9.210;2023-12-20T01:04:12;10.50;93.70
40257;DHT22;25977;45.462;9.210;2023-12-20T01:06:37;10.50;93.70
40257;DHT22;25977;45.462;9.210;2023-12-20T01:09:04;10.50;93.70
40257;DHT22;25977;45.462;9.210;2023-12-20T01:11:29;10.50;93.70
40257;DHT22;25977;45.462;9.210;2023-12-20T01:13:55;10.50;93.70
40257;DHT22;25977;45.462;9.210;2023-12-20T01:16:20;10.50;93.70
40257;DHT22;25977;45.462;9.210;2023-12-20T01:18:46;10.40;93.70
40257;DHT22;25977;45.462;9.210;2023-12-20T01:21:12;10.40;93.70
40257;DHT22;25977;45.462;9.210;2023-12-20T01:23:38;10.40;93.80
40257;DHT22;25977;45.462;9.210;2023-12-20T01:26:03;10.40;93.80
40257;DHT22;25977;45.462;9.210;2023-12-20T01:28:30;10.40;93.80
40257;DHT22;25977;45.462;9.210;2023-12-20T01:30:57;10.40;93.80
40257;DHT22;25977;45.462;9.210;2023-12-20T01:33:23;10.40;93.80
40257;DHT22;25977;45.462;9.210;2023-12-20T01:35:48;10.40;93.80
40257;DHT22;25977;45.462;9.210;2023-12-20T01:38:14;10.40;93.80
40257;DHT22;25977;45.462;9.210;2023-12-20T01:40:40;10.40;93.80
40257;DHT22;25977;45.462;9.210;2023-12-20T01:43:08;10.40;93.70
40257;DHT22;25977;45.462;9.210;2023-12-20T01:45:34;10.40;93.70
40257;DHT22;25977;45.462;9.210;2023-12-20T01:48:00;10.40;93.80
40257;DHT22;25977;45.462;9.210;2023-12-20T01:50:28;10.40;93.80
40257;DHT22;25977;45.462;9.210;2023-12-20T01:52:55;10.30;93.70
40257;DHT22;25977;45.462;9.210;2023-12-20T01:55:24;10.30;93.80
40257;DHT22;25977;45.462;9.210;2023-12-20T01:57:50;10.30;93.80
40257;DHT22;25977;45.462;9.210;2023-12-20T02:00:17;10.30;93.80
40257;DHT22;25977;45.462;9.210;2023-12-20T02:02:44;10.30;93.80
40257;DHT22;25977;45.462;9.210;2023-12-20T02:05:11;10.30;93.80
40257;DHT22;25977;45.462;9.210;2023-12-20T02:07:36;10.20;93.80
40257;DHT22;25977;45.462;9.210;2023-12-20T02:10:02;10.20;93.80
40257;DHT22;25977;45.462;9.210;2023-12-20T02:12:29;10.20;93.80
40257;DHT22;25977;45.462;9.210;2023-12-20T02:14:55;10.20;93.80
40257;DHT22;25977;45.462;9.210;2023-12-20T02:17:22;10.20;93.80
40257;DHT22;25977;45.462;9.210;2023-12-20T02:19:47;10.20;93.80
40257;DHT22;25977;45.462;9.210;2023-12-20T02:22:13;10.20;93.80
40257;DHT22;25977;45.462;9.210;2023-12-20T02:24:39;10.20;93.80
40257;DHT22;25977;45.462;9.210;2023-12-20T02:27:08;10.20;93.80
40257;DHT22;25977;45.462;9.210;2023-12-20T02:29:34;10.20;93.80
40257;DHT22;25977;45.462;9.210;2023-12-20T02:32:01;10.20;93.80
40257;DHT22;25977;45.462;9.210;2023-12-20T02:34:27;10.20;93.80
40257;DHT22;25977;45.462;9.210;2023-12-20T02:36:52;10.10;93.80
40257;DHT22;25977;45.462;9.210;2023-12-20T02:39:19;10.10;93.90
40257;DHT22;25977;45.462;9.210;2023-12-20T02:41:45;10.20;93.90
40257;DHT22;25977;45.462;9.210;2023-12-20T02:44:10;10.20;93.80
40257;DHT22;25977;45.462;9.210;2023-12-20T02:46:36;10.20;93.80
40257;DHT22;25977;45.462;9.210;2023-12-20T02:49:02;10.20;93.80
40257;DHT22;25977;45.462;9.210;2023-12-20T02:51:27;10.20;93.70
40257;DHT22;25977;45.462;9.210;2023-12-20T02:53:54;10.30;93.70
40257;DHT22;25977;45.462;9.210;2023-12-20T02:56:19;10.20;93.60
40257;DHT22;25977;45.462;9.210;2023-12-20T02:58:45;10.20;93.70
40257;DHT22;25977;45.462;9.210;2023-12-20T03:01:11;10.20;93.70
40257;DHT22;25977;45.462;9.210;2023-12-20T03:03:37;10.20;93.60
40257;DHT22;25977;45.462;9.210;2023-12-20T03:06:03;10.20;93.60
40257;DHT22;25977;45.462;9.210;2023-12-20T03:08:28;10.20;93.60
40257;DHT22;25977;45.462;9.210;2023-12-20T03:10:54;10.20;93.50
40257;DHT22;25977;45.462;9.210;2023-12-20T03:13:20;10.20;93.50
40257;DHT22;25977;45.462;9.210;2023-12-20T03:15:46;10.20;93.60
40257;DHT22;25977;45.462;9.210;2023-12-20T03:18:11;10.20;93.60
40257;DHT22;25977;45.462;9.210;2023-12-20T03:20:37;10.10;93.60
40257;DHT22;25977;45.462;9.210;2023-12-20T03:23:03;10.10;93.40
40257;DHT22;25977;45.462;9.210;2023-12-20T03:25:29;10.10;93.30
40257;DHT22;25977;45.462;9.210;2023-12-20T03:27:54;10.10;93.30
40257;DHT22;25977;45.462;9.210;2023-12-20T03:30:20;10.10;93.30
40257;DHT22;25977;45.462;9.210;2023-12-20T03:32:47;10.10;93.30
40257;DHT22;25977;45.462;9.210;2023-12-20T03:35:12;10.10;93.30
40257;DHT22;25977;45.462;9.210;2023-12-20T03:37:38;10.10;93.30
40257;DHT22;25977;45.462;9.210;2023-12-20T03:40:04;10.10;93.30
40257;DHT22;25977;45.462;9.210;2023-12-20T03:42:31;10.10;93.30
40257;DHT22;25977;45.462;9.210;2023-12-20T03:44:57;10.10;93.30
40257;DHT22;25977;45.462;9.210;2023-12-20T03:47:22;10.10;93.30
40257;DHT22;25977;45.462;9.210;2023-12-20T03:49:48;10.00;93.30
40257;DHT22;25977;45.462;9.210;2023-12-20T03:52:14;10.00;93.30
40257;DHT22;25977;45.462;9.210;2023-12-20T03:54:40;10.00;93.30
40257;DHT22;25977;45.462;9.210;2023-12-20T03:57:07;10.00;93.30
40257;DHT22;25977;45.462;9.210;2023-12-20T03:59:39;10.00;93.30
40257;DHT22;25977;45.462;9.210;2023-12-20T04:02:05;10.00;93.30
40257;DHT22;25977;45.462;9.210;2023-12-20T04:04:30;10.00;93.40
40257;DHT22;25977;45.462;9.210;2023-12-20T04:06:56;10.00;93.40
40257;DHT22;25977;45.462;9.210;2023-12-20T04:09:22;10.00;93.40
40257;DHT22;25977;45.462;9.210;2023-12-20T04:11:47;10.00;93.40
40257;DHT22;25977;45.462;9.210;2023-12-20T04:14:13;10.00;93.40
40257;DHT22;25977;45.462;9.210;2023-12-20T04:16:39;9.90;93.50
40257;DHT22;25977;45.462;9.210;2023-12-20T04:19:05;9.90;93.50
40257;DHT22;25977;45.462;9.210;2023-12-20T04:21:30;9.90;93.50
40257;DHT22;25977;45.462;9.210;2023-12-20T04:23:56;10.00;93.50
40257;DHT22;25977;45.462;9.210;2023-12-20T04:26:22;10.00;93.50
40257;DHT22;25977;45.462;9.210;2023-12-20T04:28:48;10.00;93.50
40257;DHT22;25977;45.462;9.210;2023-12-20T04:31:13;10.00;93.50
40257;DHT22;25977;45.462;9.210;2023-12-20T04:33:39;9.90;93.50
40257;DHT22;25977;45.462;9.210;2023-12-20T04:36:05;9.90;93.50
40257;DHT22;25977;45.462;9.210;2023-12-20T04:38:30;10.00;93.60
40257;DHT22;25977;45.462;9.210;2023-12-20T04:40:56;9.90;93.70
40257;DHT22;25977;45.462;9.210;2023-12-20T04:43:22;9.80;93.80
40257;DHT22;25977;45.462;9.210;2023-12-20T04:45:48;9.80;93.90
40257;DHT22;25977;45.462;9.210;2023-12-20T04:48:13;9.80;93.90
40257;DHT22;25977;45.462;9.210;2023-12-20T04:50:39;9.90;94.00
40257;DHT22;25977;45.462;9.210;2023-12-20T04:53:04;9.80;94.00
40257;DHT22;25977;45.462;9.210;2023-12-20T04:55:30;9.90;94.00
40257;DHT22;25977;45.462;9.210;2023-12-20T04:57:56;9.90;93.90
40257;DHT22;25977;45.462;9.210;2023-12-20T05:00:22;9.90;93.80
40257;DHT22;25977;45.462;9.210;2023-12-20T05:02:47;9.90;93.90
40257;DHT22;25977;45.462;9.210;2023-12-20T05:05:13;10.00;93.80
40257;DHT22;25977;45.462;9.210;2023-12-20T05:07:40;9.90;93.70
40257;DHT22;25977;45.462;9.210;2023-12-20T05:10:06;9.90;93.70
40257;DHT22;25977;45.462;9.210;2023-12-20T05:12:33;9.80;93.60
40257;DHT22;25977;45.462;9.210;2023-12-20T05:14:59;9.90;93.60
40257;DHT22;25977;45.462;9.210;2023-12-20T05:17:25;9.90;93.60
40257;DHT22;25977;45.462;9.210;2023-12-20T05:19:51;9.90;93.60
40257;DHT22;25977;45.462;9.210;2023-12-20T05:22:17;10.00;93.60
40257;DHT22;25977;45.462;9.210;2023-12-20T05:24:43;9.90;93.40
40257;DHT22;25977;45.462;9.210;2023-12-20T05:27:09;9.90;93.40
40257;DHT22;25977;45.462;9.210;2023-12-20T05:29:35;10.00;93.50
40257;DHT22;25977;45.462;9.210;2023-12-20T05:32:00;10.00;93.50
40257;DHT22;25977;45.462;9.210;2023-12-20T05:34:26;10.00;93.50
40257;DHT22;25977;45.462;9.210;2023-12-20T05:36:52;9.90;93.40
40257;DHT22;25977;45.462;9.210;2023-12-20T05:39:17;10.00;93.40
40257;DHT22;25977;45.462;9.210;2023-12-20T05:41:43;10.00;93.40
40257;DHT22;25977;45.462;9.210;2023-12-20T05:44:09;10.00;93.30
40257;DHT22;25977;45.462;9.210;2023-12-20T05:46:36;10.00;93.40
40257;DHT22;25977;45.462;9.210;2023-12-20T05:49:01;9.90;93.30
40257;DHT22;25977;45.462;9.210;2023-12-20T05:51:28;9.90;93.20
40257;DHT22;25977;45.462;9.210;2023-12-20T05:53:53;10.00;93.30
40257;DHT22;25977;45.462;9.210;2023-12-20T05:56:19;10.00;93.30
40257;DHT22;25977;45.462;9.210;2023-12-20T05:58:44;10.00;93.30
40257;DHT22;25977;45.462;9.210;2023-12-20T06:01:10;10.00;93.20
40257;DHT22;25977;45.462;9.210;2023-12-20T06:03:36;10.00;93.20
40257;DHT22;25977;45.462;9.210;2023-12-20T06:06:08;10.00;93.30
40257;DHT22;25977;45.462;9.210;2023-12-20T06:08:33;10.00;93.30
40257;DHT22;25977;45.462;9.210;2023-12-20T06:10:59;10.00;93.40
40257;DHT22;25977;45.462;9.210;2023-12-20T06:13:25;10.00;93.20
40257;DHT22;25977;45.462;9.210;2023-12-20T06:15:53;10.00;93.40
40257;DHT22;25977;45.462;9.210;2023-12-20T06:18:19;10.00;93.40
40257;DHT22;25977;45.462;9.210;2023-12-20T06:20:45;10.00;93.40
40257;DHT22;25977;45.462;9.210;2023-12-20T06:23:10;10.00;93.40
40257;DHT22;25977;45.462;9.210;2023-12-20T06:25:36;10.00;94.00
40257;DHT22;25977;45.462;9.210;2023-12-20T06:28:02;9.90;93.70
40257;DHT22;25977;45.462;9.210;2023-12-20T06:30:27;9.90;93.70
40257;DHT22;25977;45.462;9.210;2023-12-20T06:32:54;9.90;93.70
40257;DHT22;25977;45.462;9.210;2023-12-20T06:35:20;10.00;93.80
40257;DHT22;25977;45.462;9.210;2023-12-20T06:37:46;10.00;93.90
40257;DHT22;25977;45.462;9.210;2023-12-20T06:40:12;10.00;93.50
40257;DHT22;25977;45.462;9.210;2023-12-20T06:42:38;10.00;93.40
40257;DHT22;25977;45.462;9.210;2023-12-20T06:45:03;10.10;93.30
40257;DHT22;25977;45.462;9.210;2023-12-20T06:47:29;10.10;93.30
40257;DHT22;25977;45.462;9.210;2023-12-20T06:49:55;10.10;93.40
40257;DHT22;25977;45.462;9.210;2023-12-20T06:52:21;10.10;93.30
40257;DHT22;25977;45.462;9.210;2023-12-20T06:54:47;10.10;93.30
40257;DHT22;25977;45.462;9.210;2023-12-20T06:57:13;10.10;93.20
40257;DHT22;25977;45.462;9.210;2023-12-20T06:59:41;10.10;93.10
40257;DHT22;25977;45.462;9.210;2023-12-20T07:02:08;10.20;93.10
40257;DHT22;25977;45.462;9.210;2023-12-20T07:04:34;10.20;92.90
40257;DHT22;25977;45.462;9.210;2023-12-20T07:06:59;10.20;92.90
40257;DHT22;25977;45.462;9.210;2023-12-20T07:09:26;10.20;92.80
40257;DHT22;25977;45.462;9.210;2023-12-20T07:11:52;10.30;92.90
40257;DHT22;25977;45.462;9.210;2023-12-20T07:14:18;10.20;92.80
40257;DHT22;25977;45.462;9.210;2023-12-20T07:16:43;10.30;92.80
40257;DHT22;25977;45.462;9.210;2023-12-20T07:19:09;10.30;92.90
40257;DHT22;25977;45.462;9.210;2023-12-20T07:21:35;10.20;92.80
40257;DHT22;25977;45.462;9.210;2023-12-20T07:24:00;10.30;92.90
40257;DHT22;25977;45.462;9.210;2023-12-20T07:26:26;10.30;92.90
40257;DHT22;25977;45.462;9.210;2023-12-20T07:28:52;10.30;93.00
40257;DHT22;25977;45.462;9.210;2023-12-20T07:31:17;10.40;93.00
40257;DHT22;25977;45.462;9.210;2023-12-20T07:33:43;10.40;93.10
40257;DHT22;25977;45.462;9.210;2023-12-20T07:36:09;10.40;93.10
40257;DHT22;25977;45.462;9.210;2023-12-20T07:38:34;10.40;93.10
40257;DHT22;25977;45.462;9.210;2023-12-20T07:41:00;10.40;93.10
40257;DHT22;25977;45.462;9.210;2023-12-20T07:43:26;10.40;93.10
40257;DHT22;25977;45.462;9.210;2023-12-20T07:45:51;10.40;93.10
40257;DHT22;25977;45.462;9.210;2023-12-20T07:48:17;10.50;93.10
40257;DHT22;25977;45.462;9.210;2023-12-20T07:50:43;10.50;93.10
40257;DHT22;25977;45.462;9.210;2023-12-20T07:53:08;10.50;93.10
40257;DHT22;25977;45.462;9.210;2023-12-20T07:55:34;10.60;93.10
40257;DHT22;25977;45.462;9.210;2023-12-20T07:58:00;10.50;93.10
40257;DHT22;25977;45.462;9.210;2023-12-20T08:00:27;10.60;93.10
40257;DHT22;25977;45.462;9.210;2023-12-20T08:02:52;10.60;93.20
40257;DHT22;25977;45.462;9.210;2023-12-20T08:05:18;10.60;93.20
40257;DHT22;25977;45.462;9.210;2023-12-20T08:07:44;10.60;93.20
40257;DHT22;25977;45.462;9.210;2023-12-20T08:10:10;10.60;93.10
40257;DHT22;25977;45.462;9.210;2023-12-20T08:12:36;10.60;93.20
40257;DHT22;25977;45.462;9.210;2023-12-20T08:15:02;10.70;93.20
40257;DHT22;25977;45.462;9.210;2023-12-20T08:17:29;10.70;93.30
40257;DHT22;25977;45.462;9.210;2023-12-20T08:19:55;10.70;93.30
40257;DHT22;25977;45.462;9.210;2023-12-20T08:22:21;10.70;93.30
40257;DHT22;25977;45.462;9.210;2023-12-20T08:24:46;10.70;93.30
40257;DHT22;25977;45.462;9.210;2023-12-20T08:27:12;10.70;93.30
40257;DHT22;25977;45.462;9.210;2023-12-20T08:29:38;10.80;93.40
40257;DHT22;25977;45.462;9.210;2023-12-20T08:32:04;10.80;93.30
40257;DHT22;25977;45.462;9.210;2023-12-20T08:34:30;10.80;93.30
40257;DHT22;25977;45.462;9.210;2023-12-20T08:36:55;10.80;93.40
40257;DHT22;25977;45.462;9.210;2023-12-20T08:39:21;10.80;93.40
40257;DHT22;25977;45.462;9.210;2023-12-20T08:41:47;10.80;93.40
40257;DHT22;25977;45.462;9.210;2023-12-20T08:44:12;10.80;93.50
40257;DHT22;25977;45.462;9.210;2023-12-20T08:46:38;10.60;93.30
40257;DHT22;25977;45.462;9.210;2023-12-20T08:49:04;10.70;93.50
40257;DHT22;25977;45.462;9.210;2023-12-20T08:51:30;10.80;93.50
40257;DHT22;25977;45.462;9.210;2023-12-20T08:53:56;10.80;93.40
40257;DHT22;25977;45.462;9.210;2023-12-20T08:56:21;10.80;93.30
40257;DHT22;25977;45.462;9.210;2023-12-20T08:58:47;10.80;93.30
40257;DHT22;25977;45.462;9.210;2023-12-20T09:01:13;10.80;93.30
40257;DHT22;25977;45.462;9.210;2023-12-20T09:03:40;10.70;93.10
40257;DHT22;25977;45.462;9.210;2023-12-20T09:06:06;10.70;92.90
40257;DHT22;25977;45.462;9.210;2023-12-20T09:08:32;10.80;92.90
40257;DHT22;25977;45.462;9.210;2023-12-20T09:10:58;10.70;92.80
40257;DHT22;25977;45.462;9.210;2023-12-20T09:13:24;10.80;92.80
40257;DHT22;25977;45.462;9.210;2023-12-20T09:15:57;10.80;92.80
40257;DHT22;25977;45.462;9.210;2023-12-20T09:18:23;10.70;92.70
40257;DHT22;25977;45.462;9.210;2023-12-20T09:20:49;10.70;92.70
40257;DHT22;25977;45.462;9.210;2023-12-20T09:23:14;10.70;92.70
40257;DHT22;25977;45.462;9.210;2023-12-20T09:25:40;10.70;92.70
40257;DHT22;25977;45.462;9.210;2023-12-20T09:28:06;10.70;92.60
40257;DHT22;25977;45.462;9.210;2023-12-20T09:30:31;10.60;92.50
40257;DHT22;25977;45.462;9.210;2023-12-20T09:32:57;10.60;92.60
40257;DHT22;25977;45.462;9.210;2023-12-20T09:35:23;10.60;92.60
40257;DHT22;25977;45.462;9.210;2023-12-20T09:37:49;10.60;92.40
40257;DHT22;25977;45.462;9.210;2023-12-20T09:40:18;10.50;92.40
40257;DHT22;25977;45.462;9.210;2023-12-20T09:45:21;10.50;92.50
40257;DHT22;25977;45.462;9.210;2023-12-20T09:47:49;10.50;92.30
40257;DHT22;25977;45.462;9.210;2023-12-20T09:50:21;10.50;92.30
40257;DHT22;25977;45.462;9.210;2023-12-20T09:52:51;10.50;92.30
40257;DHT22;25977;45.462;9.210;2023-12-20T09:55:18;10.50;92.30
40257;DHT22;25977;45.462;9.210;2023-12-20T09:57:45;10.50;92.30
40257;DHT22;25977;45.462;9.210;2023-12-20T10:00:12;10.50;92.20
40257;DHT22;25977;45.462;9.210;2023-12-20T10:02:45;10.50;92.20
40257;DHT22;25977;45.462;9.210;2023-12-20T10:05:16;10.50;92.20
40257;DHT22;25977;45.462;9.210;2023-12-20T10:07:46;10.50;92.30
40257;DHT22;25977;45.462;9.210;2023-12-20T10:10:13;10.50;92.40
40257;DHT22;25977;45.462;9.210;2023-12-20T10:12:39;10.50;92.40
40257;DHT22;25977;45.462;9.210;2023-12-20T10:15:06;10.60;92.50
40257;DHT22;25977;45.462;9.210;2023-12-20T10:17:32;10.60;92.50
40257;DHT22;25977;45.462;9.210;2023-12-20T10:19:58;10.70;92.50
40257;DHT22;25977;45.462;9.210;2023-12-20T10:22:24;10.70;92.60
40257;DHT22;25977;45.462;9.210;2023-12-20T10:24:50;10.70;92.60
40257;DHT22;25977;45.462;9.210;2023-12-20T10:27:18;10.80;92.50
40257;DHT22;25977;45.462;9.210;2023-12-20T10:29:45;10.80;92.40
40257;DHT22;25977;45.462;9.210;2023-12-20T10:32:36;10.90;92.20
40257;DHT22;25977;45.462;9.210;2023-12-20T10:35:04;10.90;92.30
40257;DHT22;25977;45.462;9.210;2023-12-20T10:37:30;10.90;91.90
40257;DHT22;25977;45.462;9.210;2023-12-20T10:39:55;11.00;91.90
40257;DHT22;25977;45.462;9.210;2023-12-20T10:42:26;10.90;91.80
40257;DHT22;25977;45.462;9.210;2023-12-20T10:44:52;10.90;91.80
40257;DHT22;25977;45.462;9.210;2023-12-20T10:47:20;11.00;91.90
40257;DHT22;25977;45.462;9.210;2023-12-20T10:49:46;11.00;91.80
40257;DHT22;25977;45.462;9.210;2023-12-20T10:52:13;11.00;91.70
40257;DHT22;25977;45.462;9.210;2023-12-20T10:54:40;11.10;91.70
40257;DHT22;25977;45.462;9.210;2023-12-20T10:57:06;11.10;91.60
40257;DHT22;25977;45.462;9.210;2023-12-20T10:59:34;11.10;91.50
40257;DHT22;25977;45.462;9.210;2023-12-20T11:02:03;11.20;91.60
40257;DHT22;25977;45.462;9.210;2023-12-20T11:07:32;11.20;91.40
40257;DHT22;25977;45.462;9.210;2023-12-20T11:10:10;11.20;91.30
40257;DHT22;25977;45.462;9.210;2023-12-20T11:15:39;11.30;91.10
40257;DHT22;25977;45.462;9.210;2023-12-20T11:18:06;11.30;91.00
40257;DHT22;25977;45.462;9.210;2023-12-20T11:20:39;11.30;90.90
40257;DHT22;25977;45.462;9.210;2023-12-20T11:23:06;11.30;90.90
40257;DHT22;25977;45.462;9.210;2023-12-20T11:25:53;11.30;90.90
40257;DHT22;25977;45.462;9.210;2023-12-20T11:28:23;11.30;90.90
40257;DHT22;25977;45.462;9.210;2023-12-20T11:30:53;11.30;90.80
40257;DHT22;25977;45.462;9.210;2023-12-20T11:33:23;11.30;90.70
40257;DHT22;25977;45.462;9.210;2023-12-20T11:35:49;11.30;90.70
40257;DHT22;25977;45.462;9.210;2023-12-20T11:38:15;11.20;90.60
40257;DHT22;25977;45.462;9.210;2023-12-20T11:40:42;11.20;90.70
40257;DHT22;25977;45.462;9.210;2023-12-20T11:43:09;11.30;90.70
40257;DHT22;25977;45.462;9.210;2023-12-20T11:45:35;11.20;90.70
40257;DHT22;25977;45.462;9.210;2023-12-20T11:48:02;11.20;90.70
40257;DHT22;25977;45.462;9.210;2023-12-20T11:50:33;11.30;90.60
40257;DHT22;25977;45.462;9.210;2023-12-20T11:52:59;11.30;90.60
40257;DHT22;25977;45.462;9.210;2023-12-20T11:55:25;11.40;90.70
40257;DHT22;25977;45.462;9.210;2023-12-20T11:57:51;11.40;90.70
40257;DHT22;25977;45.462;9.210;2023-12-20T12:00:17;11.50;90.50
40257;DHT22;25977;45.462;9.210;2023-12-20T12:02:55;11.50;90.50
40257;DHT22;25977;45.462;9.210;2023-12-20T12:05:21;11.50;90.50
40257;DHT22;25977;45.462;9.210;2023-12-20T12:07:46;11.60;90.60
40257;DHT22;25977;45.462;9.210;2023-12-20T12:10:12;11.70;90.60
40257;DHT22;25977;45.462;9.210;2023-12-20T12:12:38;11.70;90.70
40257;DHT22;25977;45.462;9.210;2023-12-20T12:15:05;11.60;90.60
40257;DHT22;25977;45.462;9.210;2023-12-20T12:17:31;11.60;90.60
40257;DHT22;25977;45.462;9.210;2023-12-20T12:20:04;11.60;90.60
40257;DHT22;25977;45.462;9.210;2023-12-20T12:22:30;11.60;91.10
40257;DHT22;25977;45.462;9.210;2023-12-20T12:24:59;11.70;91.30
40257;DHT22;25977;45.462;9.210;2023-12-20T12:27:34;11.70;91.20
40257;DHT22;25977;45.462;9.210;2023-12-20T12:30:04;11.70;91.10
40257;DHT22;25977;45.462;9.210;2023-12-20T12:32:32;11.60;91.10
40257;DHT22;25977;45.462;9.210;2023-12-20T12:34:58;11.70;91.30
40257;DHT22;25977;45.462;9.210;2023-12-20T12:37:24;11.70;91.30
40257;DHT22;25977;45.462;9.210;2023-12-20T12:39:50;11.70;90.90
40257;DHT22;25977;45.462;9.210;2023-12-20T12:42:15;11.40;91.10
40257;DHT22;25977;45.462;9.210;2023-12-20T12:44:41;11.40;90.80
40257;DHT22;25977;45.462;9.210;2023-12-20T12:47:07;11.30;91.10
40257;DHT22;25977;45.462;9.210;2023-12-20T12:49:33;11.30;91.10
40257;DHT22;25977;45.462;9.210;2023-12-20T12:51:59;11.50;91.00
40257;DHT22;25977;45.462;9.210;2023-12-20T12:54:24;11.60;91.20
40257;DHT22;25977;45.462;9.210;2023-12-20T12:56:50;11.70;91.00
40257;DHT22;25977;45.462;9.210;2023-12-20T12:59:18;11.80;90.70
40257;DHT22;25977;45.462;9.210;2023-12-20T13:01:44;11.90;90.60
40257;DHT22;25977;45.462;9.210;2023-12-20T13:04:09;12.00;90.70
40257;DHT22;25977;45.462;9.210;2023-12-20T13:06:39;12.00;90.60
40257;DHT22;25977;45.462;9.210;2023-12-20T13:09:07;12.10;90.70
40257;DHT22;25977;45.462;9.210;2023-12-20T13:11:35;12.20;90.40
40257;DHT22;25977;45.462;9.210;2023-12-20T13:14:01;12.10;90.40
40257;DHT22;25977;45.462;9.210;2023-12-20T13:16:27;12.20;90.20
40257;DHT22;25977;45.462;9.210;2023-12-20T13:18:53;12.20;90.10
40257;DHT22;25977;45.462;9.210;2023-12-20T13:21:19;12.30;90.10
40257;DHT22;25977;45.462;9.210;2023-12-20T13:23:44;12.30;90.30
40257;DHT22;25977;45.462;9.210;2023-12-20T13:26:10;12.40;90.10
40257;DHT22;25977;45.462;9.210;2023-12-20T13:28:36;12.40;89.70
40257;DHT22;25977;45.462;9.210;2023-12-20T13:31:02;12.40;89.50
40257;DHT22;25977;45.462;9.210;2023-12-20T13:33:28;12.40;89.30
40257;DHT22;25977;45.462;9.210;2023-12-20T13:35:53;12.50;89.90
40257;DHT22;25977;45.462;9.210;2023-12-20T13:38:19;12.40;89.50
40257;DHT22;25977;45.462;9.210;2023-12-20T13:40:45;12.50;89.70
40257;DHT22;25977;45.462;9.210;2023-12-20T13:43:10;12.50;89.40
40257;DHT22;25977;45.462;9.210;2023-12-20T13:45:38;12.50;89.30
40257;DHT22;25977;45.462;9.210;2023-12-20T13:48:04;12.50;89.10
40257;DHT22;25977;45.462;9.210;2023-12-20T13:50:30;12.50;89.00
40257;DHT22;25977;45.462;9.210;2023-12-20T13:52:55;12.50;89.10
40257;DHT22;25977;45.462;9.210;2023-12-20T13:55:21;12.40;88.80
40257;DHT22;25977;45.462;9.210;2023-12-20T13:57:51;12.40;89.00
40257;DHT22;25977;45.462;9.210;2023-12-20T14:00:16;12.40;89.10
40257;DHT22;25977;45.462;9.210;2023-12-20T14:02:42;12.40;89.10
40257;DHT22;25977;45.462;9.210;2023-12-20T14:05:09;12.30;88.60
40257;DHT22;25977;45.462;9.210;2023-12-20T14:07:36;12.20;88.70
40257;DHT22;25977;45.462;9.210;2023-12-20T14:10:02;12.20;89.00
40257;DHT22;25977;45.462;9.210;2023-12-20T14:12:27;12.20;89.40
40257;DHT22;25977;45.462;9.210;2023-12-20T14:14:53;12.10;90.00
40257;DHT22;25977;45.462;9.210;2023-12-20T14:17:21;12.00;90.20
40257;DHT22;25977;45.462;9.210;2023-12-20T14:19:47;12.00;90.30
40257;DHT22;25977;45.462;9.210;2023-12-20T14:22:13;11.90;90.40
40257;DHT22;25977;45.462;9.210;2023-12-20T14:24:42;11.90;90.50
40257;DHT22;25977;45.462;9.210;2023-12-20T14:27:08;11.90;90.60
40257;DHT22;25977;45.462;9.210;2023-12-20T14:29:35;11.80;90.50
40257;DHT22;25977;45.462;9.210;2023-12-20T14:32:00;11.80;90.60
40257;DHT22;25977;45.462;9.210;2023-12-20T14:34:28;11.80;90.60
40257;DHT22;25977;45.462;9.210;2023-12-20T14:36:54;11.80;90.50
40257;DHT22;25977;45.462;9.210;2023-12-20T14:39:19;11.80;90.40
40257;DHT22;25977;45.462;9.210;2023-12-20T14:41:45;11.80;90.50
40257;DHT22;25977;45.462;9.210;2023-12-20T14:44:11;11.80;90.50
40257;DHT22;25977;45.462;9.210;2023-12-20T14:46:37;11.70;90.60
40257;DHT22;25977;45.462;9.210;2023-12-20T14:49:04;11.70;90.70
40257;DHT22;25977;45.462;9.210;2023-12-20T14:51:30;11.70;90.80
40257;DHT22;25977;45.462;9.210;2023-12-20T14:53:55;11.60;90.80
40257;DHT22;25977;45.462;9.210;2023-12-20T14:56:23;11.60;90.80
40257;DHT22;25977;45.462;9.210;2023-12-20T14:58:49;11.70;90.90
40257;DHT22;25977;45.462;9.210;2023-12-20T15:01:15;11.60;90.90
40257;DHT22;25977;45.462;9.210;2023-12-20T15:03:40;11.60;91.00
40257;DHT22;25977;45.462;9.210;2023-12-20T15:06:06;11.60;91.10
40257;DHT22;25977;45.462;9.210;2023-12-20T15:08:32;11.50;91.20
40257;DHT22;25977;45.462;9.210;2023-12-20T15:10:58;11.60;91.30
40257;DHT22;25977;45.462;9.210;2023-12-20T15:13:24;11.50;91.50
40257;DHT22;25977;45.462;9.210;2023-12-20T15:15:50;11.50;91.80
40257;DHT22;25977;45.462;9.210;2023-12-20T15:18:16;11.40;92.00
40257;DHT22;25977;45.462;9.210;2023-12-20T15:20:41;11.30;92.10
40257;DHT22;25977;45.462;9.210;2023-12-20T15:23:09;11.30;92.20
40257;DHT22;25977;45.462;9.210;2023-12-20T15:25:35;11.30;92.30
40257;DHT22;25977;45.462;9.210;2023-12-20T15:28:01;11.20;92.20
40257;DHT22;25977;45.462;9.210;2023-12-20T15:30:28;11.10;92.20
40257;DHT22;25977;45.462;9.210;2023-12-20T15:32:55;11.00;92.40
40257;DHT22;25977;45.462;9.210;2023-12-20T15:35:22;11.10;92.40